This is the latest recevied weather packets stored in our database for station/object WB5LFS-1. If no packets are shown the sender has not sent any weather packets the latest 10 day(s).
| Time | Temp. | Humidity | Pressure | Rain* | Wind** | Luminosity | Snow |
|---|---|---|---|---|---|---|---|
| 1777420619 | 13.89° C | 69% | 1017.1 hPa | 0 mm | - | - | - |
| 1777419719 | 15° C | 66% | 1017.7 hPa | 0 mm | - | - | - |
| 1777418819 | 16.11° C | 67% | 1017.2 hPa | 0 mm | - | - | - |
| 1777417919 | 16.67° C | 65% | 1017.9 hPa | 0 mm | - | - | - |
| 1777417019 | 17.78° C | 62% | 1017.4 hPa | 0 mm | - | - | - |
| 1777416119 | 18.89° C | 56% | 1017.2 hPa | 0 mm | - | - | - |
| 1777415219 | 19.44° C | 56% | 1017.1 hPa | 0 mm | - | - | - |
| 1777414319 | 19.44° C | 57% | 1017.1 hPa | 0 mm | - | - | - |
| 1777413419 | 20° C | 56% | 1017.1 hPa | 0 mm | - | - | - |
| 1777412519 | 20° C | 58% | 1017.1 hPa | 0 mm | - | - | - |
| 1777411619 | 20° C | 54% | 1017.3 hPa | 0 mm | - | - | - |
| 1777410719 | 20° C | 54% | 1017.6 hPa | 0 mm | - | - | - |
| 1777409820 | 19.44° C | 57% | 1017.5 hPa | 0 mm | - | - | - |
| 1777408920 | 18.89° C | 60% | 1017.7 hPa | 0 mm | - | - | - |
| 1777408019 | 18.89° C | 57% | 1017.9 hPa | 0 mm | - | - | - |
| 1777407120 | 18.33° C | 57% | 1018.4 hPa | 0 mm | - | - | - |
| 1777406220 | 18.33° C | 56% | 1018.6 hPa | 0 mm | - | - | - |
| 1777405320 | 18.33° C | 51% | 1018.8 hPa | 0 mm | - | - | - |
| 1777404420 | 19.44° C | 52% | 1018.7 hPa | 0 mm | - | - | - |
| 1777403520 | 18.33° C | 54% | 1018.9 hPa | 0 mm | - | - | - |
| 1777402620 | 17.78° C | 55% | 1019 hPa | 0 mm | - | - | - |
| 1777401720 | 17.78° C | 60% | 1019.4 hPa | 0 mm | - | - | - |
| 1777400820 | 17.78° C | 60% | 1019.7 hPa | 0 mm | - | - | - |
| 1777399920 | 17.22° C | 59% | 1019.6 hPa | 0 mm | - | - | - |
| 1777399020 | 16.11° C | 64% | 1019.9 hPa | 0 mm | - | - | - |
* Rain latest hour (hover to see other rain measurements)
** Current wind speed in m/s (hover to see current wind gust speed)